Terminal Aerodrome Forecast
Issued by NWS

Home | Current Version | Previous Version | Text Only | Print | Product List | Glossary On
Versions: 1 2 3 4 5 6 7 8 9 10 11 12 13 14 15 16 17 18 19 20 21 22 23
000
FTUS46 KPDT 250000 AAC
TAFBDN
TAF AMD
KBDN 250052Z 2501/2524 23010G20KT P6SM VCSH BKN050
      TEMPO 2501/2504 23007KT -SHRA BKN035 OVC050
     FM250400 30010KT P6SM VCSH BKN050 OVC100
     FM250600 VRB06KT P6SM VCSH BKN040 OVC070
     FM251800 30010KT P6SM VCSH BKN050 BKN100=

USA.gov is the U.S. government's official web portal to all federal, state and local government web resources and services.